Time;durP1;ratioP1;P1;durP2;ratioP2;P2;SDS_P1;SDS_P2;PMS_P1;PMS_P2;Temp;Humidity;BMP_temperature;BMP_pressure;BME280_temperature;BME280_humidity;BME280_pressure;Samples;Min_cycle;Max_cycle;Signal;HPM_P1;HPM_P2
2022/08/13 00:00:31;;;;;;;41.25;3.28;;;;;;;25.65;55.48;99702.91;7313209;19;129355;-39
2022/08/13 00:02:58;;;;;;;17.60;1.67;;;;;;;25.86;57.82;99721.66;7312754;19;129579;-42
2022/08/13 00:05:24;;;;;;;10.80;1.13;;;;;;;25.95;58.07;99717.25;7311948;19;128852;-42
2022/08/13 00:07:50;;;;;;;15.27;1.33;;;;;;;26.00;57.07;99720.19;7313444;19;128817;-42
2022/08/13 00:10:25;;;;;;;37.85;3.03;;;;;;;26.01;58.42;99716.56;7313456;19;129905;-42
2022/08/13 00:12:56;;;;;;;27.80;2.30;;;;;;;26.02;58.11;99721.69;7312052;19;130349;-39
2022/08/13 00:15:30;;;;;;;14.70;1.30;;;;;;;26.04;57.57;99716.25;7314265;19;128780;-41
2022/08/13 00:17:58;;;;;;;15.50;1.48;;;;;;;26.05;57.30;99718.72;7313836;19;128876;-41
2022/08/13 00:20:28;;;;;;;13.00;1.27;;;;;;;26.03;58.84;99715.44;7313914;19;130264;-42
2022/08/13 00:22:56;;;;;;;25.65;2.08;;;;;;;25.96;58.18;99698.63;7311356;19;129967;-42
2022/08/13 00:25:23;;;;;;;31.20;2.92;;;;;;;26.06;57.96;99716.94;7311398;19;129259;-40
2022/08/13 00:27:49;;;;;;;;;;;;;;;26.04;59.66;99693.38;7314488;19;129392;-39
2022/08/13 00:30:15;;;;;;;25.02;2.33;;;;;;;26.08;57.98;99699.16;7312525;19;129155;-40
2022/08/13 00:32:45;;;;;;;29.73;2.67;;;;;;;26.07;58.44;99695.69;7310651;19;129132;-41
2022/08/13 00:35:11;;;;;;;27.17;2.15;;;;;;;26.06;58.98;99699.31;7313527;19;128716;-40
2022/08/13 00:37:37;;;;;;;16.90;1.50;;;;;;;26.07;58.97;99692.22;7313874;19;129212;-42
2022/08/13 00:40:05;;;;;;;16.60;1.48;;;;;;;26.08;58.52;99688.59;7312752;19;129633;-38
2022/08/13 00:42:31;;;;;;;27.75;2.45;;;;;;;26.07;58.52;99690.41;7311610;19;130076;-39
2022/08/13 00:44:56;;;;;;;21.63;1.80;;;;;;;25.83;55.28;99686.94;7312783;19;129984;-42
2022/08/13 00:50:10;;;;;;;18.20;1.70;;;;;;;25.69;55.77;99680.50;7313682;19;129459;-42
2022/08/13 00:52:39;;;;;;;15.57;1.40;;;;;;;25.90;57.56;99683.47;7311615;19;129512;-42
2022/08/13 00:55:08;;;;;;;22.90;2.00;;;;;;;25.96;57.56;99674.91;7312570;19;129066;-42
2022/08/13 00:57:34;;;;;;;30.88;2.70;;;;;;;26.00;57.75;99676.22;7312197;19;129439;-41
2022/08/13 01:00:07;;;;;;;8.88;0.95;;;;;;;26.03;57.68;99673.28;7312800;19;130121;-40
2022/08/13 01:02:32;;;;;;;10.10;1.02;;;;;;;26.02;57.83;99669.00;7311821;19;130396;-42
2022/08/13 01:04:58;;;;;;;15.97;1.40;;;;;;;25.95;58.05;99646.09;7311695;19;129316;-41
2022/08/13 01:07:24;;;;;;;36.53;2.87;;;;;;;26.05;57.74;99655.50;7312201;19;129256;-39
2022/08/13 01:09:50;;;;;;;18.08;1.60;;;;;;;26.06;57.55;99657.16;7312470;19;129893;-41
2022/08/13 01:12:20;;;;;;;20.73;1.83;;;;;;;26.07;58.09;99648.25;7310185;19;131050;-37
2022/08/13 01:14:46;;;;;;;17.25;1.60;;;;;;;26.07;58.60;99642.97;7311744;19;128844;-42
2022/08/13 01:17:12;;;;;;;39.47;3.25;;;;;;;26.07;58.00;99647.41;7311827;19;129208;-42
2022/08/13 01:19:39;;;;;;;16.42;1.48;;;;;;;26.09;58.11;99653.34;7312296;19;129698;-41
2022/08/13 01:22:05;;;;;;;16.77;1.50;;;;;;;26.09;57.45;99648.06;7310717;19;131080;-42
2022/08/13 01:24:31;;;;;;;15.33;1.43;;;;;;;26.07;57.74;99648.25;7308477;19;129589;-40
2022/08/13 01:26:58;;;;;;;38.83;3.20;;;;;;;26.08;57.83;99655.16;7311418;19;129470;-42
2022/08/13 01:29:24;;;;;;;;;;;;;;;26.17;59.89;99654.16;7312593;19;129745;-41
2022/08/13 01:31:51;;;;;;;14.50;1.27;;;;;;;26.11;57.96;99648.75;7310359;19;130568;-41
2022/08/13 01:34:18;;;;;;;19.23;1.73;;;;;;;25.84;55.09;99652.53;7309080;19;128564;-39
2022/08/13 01:36:46;;;;;;;29.83;2.35;;;;;;;25.64;53.27;99651.19;7311650;19;129430;-40
2022/08/13 01:39:12;;;;;;;19.70;1.83;;;;;;;25.75;56.04;99642.16;7311842;19;129534;-41
2022/08/13 01:41:38;;;;;;;27.27;2.70;;;;;;;25.91;57.94;99642.97;7310130;19;129334;-42
2022/08/13 01:44:05;;;;;;;15.10;1.33;;;;;;;25.92;58.44;99638.50;7309091;19;128995;-42
2022/08/13 01:52:02;;;;;;;32.55;2.65;;;;;;;26.03;57.58;99643.47;7317902;19;129380;-40
2022/08/13 01:54:28;;;;;;;13.75;1.30;;;;;;;26.04;57.61;99643.31;7315264;19;129078;-40
2022/08/13 01:56:59;;;;;;;11.90;1.13;;;;;;;26.05;58.11;99641.50;7317199;19;129029;-42
2022/08/13 01:59:24;;;;;;;17.55;1.60;;;;;;;26.06;57.83;99649.25;7316906;19;131124;-41
2022/08/13 02:01:50;;;;;;;34.37;2.77;;;;;;;26.07;58.04;99642.97;7316121;19;129410;-40
2022/08/13 02:04:15;;;;;;;17.73;1.87;;;;;;;26.07;57.66;99644.78;7315634;19;128841;-40
2022/08/13 02:06:41;;;;;;;20.03;2.10;;;;;;;26.09;58.24;99654.19;7316902;19;129687;-42
2022/08/13 02:09:07;;;;;;;20.27;1.70;;;;;;;26.09;58.51;99654.19;7316804;19;130155;-40
2022/08/13 02:11:35;;;;;;;53.67;5.13;;;;;;;26.08;58.80;99655.16;7316115;19;129452;-39
2022/08/13 02:14:03;;;;;;;13.20;1.20;;;;;;;26.09;58.96;99661.25;7316184;19;128832;-42
2022/08/13 02:16:33;;;;;;;17.02;1.45;;;;;;;26.09;59.33;99659.44;7317232;19;129539;-41
2022/08/13 02:19:00;;;;;;;17.35;1.70;;;;;;;26.09;58.59;99663.88;7317057;19;129419;-41
2022/08/13 02:21:30;;;;;;;46.55;3.95;;;;;;;26.11;57.50;99670.66;7316367;19;129202;-41
2022/08/13 02:23:58;;;;;;;3.40;0.55;;;;;;;25.69;53.93;99664.69;7315381;19;128763;-39
2022/08/13 02:26:24;;;;;;;5.28;0.65;;;;;;;25.64;52.97;99672.28;7314074;19;128882;-42
2022/08/13 02:28:51;;;;;;;13.70;1.37;;;;;;;25.84;57.40;99663.06;7316246;19;130748;-42
2022/08/13 02:31:18;;;;;;;36.47;2.92;;;;;;;25.95;58.12;99670.63;7315568;19;129668;-39
2022/08/13 02:33:43;;;;;;;16.02;1.63;;;;;;;26.00;57.50;99668.31;7315193;19;129111;-41
2022/08/13 02:36:10;;;;;;;15.87;1.43;;;;;;;25.95;57.73;99654.00;7317031;19;129544;-42
2022/08/13 02:38:39;;;;;;;8.73;0.82;;;;;;;26.06;57.65;99661.59;7316228;19;131097;-41
2022/08/13 02:43:50;;;;;;;38.10;3.15;;;;;;;26.10;57.00;99658.44;7314778;19;128861;-40
2022/08/13 02:46:17;;;;;;;17.52;1.55;;;;;;;26.09;57.90;99648.91;7315564;19;128944;-38
2022/08/13 02:48:42;;;;;;;;;;;;;;;26.19;59.55;99656.63;7317390;19;129578;-39
2022/08/13 02:51:11;;;;;;;13.77;1.33;;;;;;;26.12;58.60;99653.00;7316482;19;130330;-42
2022/08/13 02:53:38;;;;;;;36.28;2.95;;;;;;;26.09;57.87;99640.16;7314031;19;129425;-41
2022/08/13 02:56:06;;;;;;;;;;;;;;;26.18;60.04;99645.25;7316565;19;129529;-41
2022/08/13 02:58:31;;;;;;;17.02;1.58;;;;;;;26.12;58.38;99640.66;7315942;19;129740;-42
2022/08/13 03:00:58;;;;;;;14.07;1.33;;;;;;;26.11;58.75;99644.31;7314812;19;129406;-39
2022/08/13 03:03:26;;;;;;;36.05;2.92;;;;;;;26.09;58.13;99643.63;7313802;19;129575;-42
2022/08/13 03:05:52;;;;;;;22.38;1.92;;;;;;;26.09;58.76;99648.91;7314508;19;129216;-42
2022/08/13 03:08:18;;;;;;;10.63;1.05;;;;;;;26.08;58.44;99636.69;7315270;19;129433;-41
2022/08/13 03:10:44;;;;;;;20.63;1.97;;;;;;;25.81;54.81;99639.69;7315035;19;129183;-42
2022/08/13 03:13:37;;;;;;;34.40;2.90;;;;;;;25.52;52.94;99626.19;7313585;19;129195;-41
2022/08/13 03:16:03;;;;;;;14.43;1.27;;;;;;;25.74;56.92;99625.53;7314216;19;129200;-42
2022/08/13 03:18:30;;;;;;;26.80;2.47;;;;;;;25.87;57.77;99631.13;7315188;19;129629;-41
2022/08/13 03:20:55;;;;;;;15.30;1.42;;;;;;;26.01;57.74;99643.66;7314687;19;130418;-39
2022/08/13 03:23:22;;;;;;;8.63;1.03;;;;;;;26.05;56.92;99644.94;7312562;19;129020;-42
2022/08/13 03:25:49;;;;;;;32.42;2.78;;;;;;;26.05;57.35;99646.78;7313156;19;128995;-41
2022/08/13 03:28:14;;;;;;;25.10;2.10;;;;;;;26.07;57.97;99645.63;7315293;19;129290;-40
2022/08/13 03:30:41;;;;;;;19.40;2.10;;;;;;;26.07;57.54;99631.59;7314356;19;129351;-41
2022/08/13 03:33:09;;;;;;;14.98;1.42;;;;;;;26.09;58.42;99638.38;7313288;19;129149;-41
2022/08/13 03:35:36;;;;;;;28.15;2.30;;;;;;;26.09;58.77;99629.63;7314670;19;129025;-41
2022/08/13 03:38:07;;;;;;;31.83;2.75;;;;;;;26.10;58.50;99637.38;7315698;19;129136;-42
2022/08/13 03:43:19;;;;;;;13.18;1.35;;;;;;;26.10;59.02;99640.00;7314851;19;129381;-39
2022/08/13 03:45:44;;;;;;;6.15;0.77;;;;;;;26.11;59.02;99644.31;7313046;19;128950;-42
2022/08/13 03:48:13;;;;;;;21.73;1.97;;;;;;;26.04;58.73;99621.41;7314598;19;131845;-40
2022/08/13 03:50:44;;;;;;;34.80;3.20;;;;;;;26.10;59.96;99634.72;7313927;19;129273;-39
2022/08/13 03:53:09;;;;;;;13.88;1.30;;;;;;;26.11;58.04;99640.84;7312877;19;128834;-41
2022/08/13 03:55:37;;;;;;;14.97;1.40;;;;;;;26.01;58.37;99630.47;7313788;19;129616;-38
2022/08/13 03:58:05;;;;;;;30.42;2.72;;;;;;;26.09;57.99;99637.53;7314436;19;129357;-38
2022/08/13 04:00:33;;;;;;;38.25;3.30;;;;;;;25.68;53.65;99640.16;7313236;19;129839;-41
2022/08/13 04:03:00;;;;;;;36.90;3.25;;;;;;;25.62;55.45;99629.47;7310172;19;129159;-40
2022/08/13 04:05:26;;;;;;;18.77;1.73;;;;;;;25.89;57.63;99637.03;7312523;19;128976;-38
2022/08/13 04:07:52;;;;;;;11.13;1.20;;;;;;;25.99;58.32;99637.69;7311599;19;129987;-38
2022/08/13 04:10:18;;;;;;;45.83;3.77;;;;;;;26.05;58.04;99633.59;7313574;19;131352;-39
2022/08/13 04:12:44;;;;;;;6.60;0.88;;;;;;;26.07;57.50;99629.81;7312617;19;129291;-38
2022/08/13 04:15:09;;;;;;;12.90;1.20;;;;;;;26.08;57.71;99622.72;7313555;19;129406;-38
2022/08/13 04:17:36;;;;;;;18.07;1.83;;;;;;;26.06;58.28;99622.91;7313032;19;130280;-39
2022/08/13 04:20:07;;;;;;;37.75;3.05;;;;;;;26.09;58.30;99630.47;7313435;19;129773;-39
2022/08/13 04:22:33;;;;;;;15.70;1.45;;;;;;;26.09;57.74;99627.81;7312709;19;129276;-40
2022/08/13 04:24:59;;;;;;;16.47;1.50;;;;;;;26.09;58.24;99625.19;7312191;19;129038;-41
2022/08/13 04:27:25;;;;;;;13.17;1.23;;;;;;;26.10;58.22;99621.56;7313177;19;129202;-38
2022/08/13 04:29:55;;;;;;;34.97;3.05;;;;;;;26.10;58.35;99626.81;7313414;19;130534;-42
2022/08/13 04:32:22;;;;;;;6.95;0.98;;;;;;;26.11;58.26;99631.13;7312646;19;130006;-38
2022/08/13 04:34:48;;;;;;;14.25;1.40;;;;;;;26.10;57.69;99632.09;7314135;19;129335;-38
2022/08/13 04:37:13;;;;;;;15.23;1.43;;;;;;;26.11;58.37;99633.75;7313263;19;129175;-40
2022/08/13 04:39:38;;;;;;;22.03;1.93;;;;;;;26.13;58.65;99633.59;7313076;19;130367;-40
2022/08/13 04:42:07;;;;;;;14.00;1.47;;;;;;;26.13;58.89;99630.94;7313900;19;129124;-38
2022/08/13 04:44:35;;;;;;;15.80;1.55;;;;;;;26.11;58.42;99628.50;7309748;19;129636;-37
2022/08/13 04:47:01;;;;;;;1.58;0.40;;;;;;;25.74;53.85;99641.31;7312639;19;129732;-39
2022/08/13 04:49:27;;;;;;;42.40;3.37;;;;;;;25.63;53.15;99633.78;7312421;19;129807;-38
2022/08/13 04:51:52;;;;;;;16.93;1.57;;;;;;;25.86;56.57;99645.28;7312747;19;129273;-37
2022/08/13 04:54:19;;;;;;;15.70;1.43;;;;;;;25.97;57.90;99647.56;7309875;19;128903;-38
2022/08/13 04:56:45;;;;;;;14.02;1.30;;;;;;;26.02;57.45;99650.56;7311884;19;129591;-37
2022/08/13 04:59:12;;;;;;;42.53;3.42;;;;;;;25.96;57.42;99635.41;7311332;19;129665;-40
2022/08/13 05:01:38;;;;;;;34.60;3.53;;;;;;;26.07;56.63;99648.25;7312690;19;128996;-37
2022/08/13 05:04:04;;;;;;;18.15;1.65;;;;;;;26.09;57.72;99648.06;7309927;19;129626;-41
2022/08/13 05:06:29;;;;;;;13.13;1.27;;;;;;;26.11;57.43;99646.09;7309262;19;131116;-37
2022/08/13 05:08:56;;;;;;;45.43;3.80;;;;;;;26.13;57.91;99647.56;7312130;19;129544;-38
2022/08/13 05:11:22;;;;;;;12.43;1.35;;;;;;;26.10;57.53;99634.72;7312841;19;129027;-37
2022/08/13 05:13:47;;;;;;;22.20;2.13;;;;;;;26.03;57.82;99625.03;7309975;19;129699;-38
2022/08/13 05:16:17;;;;;;;18.03;1.73;;;;;;;26.13;59.12;99641.50;7311288;19;129255;-39
2022/08/13 05:18:50;;;;;;;41.25;3.38;;;;;;;26.12;57.71;99647.75;7312609;19;129405;-41
2022/08/13 05:21:16;;;;;;;21.15;1.95;;;;;;;26.06;58.84;99624.69;7319079;19;128999;-41
2022/08/13 05:23:42;;;;;;;17.83;1.60;;;;;;;26.12;57.80;99634.56;7316622;19;129424;-38
2022/08/13 05:26:10;;;;;;;16.10;1.57;;;;;;;26.13;58.40;99638.84;7316555;19;128917;-38
2022/08/13 05:28:36;;;;;;;31.42;2.75;;;;;;;26.11;57.89;99633.75;7317772;19;129431;-38
2022/08/13 05:31:01;;;;;;;20.63;1.90;;;;;;;26.12;58.86;99630.13;7318012;19;129021;-40
2022/08/13 05:33:29;;;;;;;19.20;1.77;;;;;;;26.12;58.57;99635.41;7316028;19;129811;-39
2022/08/13 05:36:03;;;;;;;14.43;1.40;;;;;;;25.65;53.98;99634.44;7317323;19;129330;-38
2022/08/13 05:38:30;;;;;;;26.63;2.15;;;;;;;25.67;54.06;99630.63;7318539;19;130511;-40
2022/08/13 05:40:59;;;;;;;31.92;2.67;;;;;;;25.80;57.88;99613.53;7318022;19;129450;-38
2022/08/13 05:43:28;;;;;;;14.50;1.42;;;;;;;25.87;57.99;99609.19;7316637;19;129376;-40
2022/08/13 05:45:59;;;;;;;15.02;1.50;;;;;;;26.00;58.52;99623.50;7315977;19;129400;-39
2022/08/13 05:48:26;;;;;;;15.20;1.45;;;;;;;26.04;57.73;99616.97;7317678;19;129539;-40
2022/08/13 05:50:53;;;;;;;40.58;3.25;;;;;;;26.04;57.81;99616.97;7317383;19;129156;-39
2022/08/13 05:53:18;;;;;;;14.23;1.45;;;;;;;26.08;58.39;99618.25;7316938;19;128640;-39
2022/08/13 05:55:44;;;;;;;18.90;1.60;;;;;;;25.99;58.52;99608.72;7317712;19;130311;-39
2022/08/13 05:58:13;;;;;;;16.00;1.60;;;;;;;26.08;57.11;99618.25;7317410;19;130896;-37
2022/08/13 06:03:25;;;;;;;36.58;2.97;;;;;;;26.01;57.75;99606.78;7316717;19;129395;-38
2022/08/13 06:05:53;;;;;;;16.37;1.50;;;;;;;26.10;57.70;99620.75;7316306;19;129345;-39
2022/08/13 06:08:23;;;;;;;15.30;1.33;;;;;;;26.10;58.63;99620.75;7317043;19;130414;-37
2022/08/13 06:10:48;;;;;;;12.55;1.23;;;;;;;26.11;57.89;99623.22;7316383;19;128752;-39
2022/08/13 06:13:16;;;;;;;34.73;2.90;;;;;;;26.11;58.64;99622.38;7315421;19;128740;-40
2022/08/13 06:15:43;;;;;;;10.65;1.10;;;;;;;26.10;58.34;99626.81;7317376;19;131174;-39
2022/08/13 06:18:11;;;;;;;14.35;1.42;;;;;;;26.11;56.92;99619.75;7316755;19;129336;-40
2022/08/13 06:20:36;;;;;;;18.73;1.73;;;;;;;26.10;58.42;99621.56;7316333;19;128845;-40
2022/08/13 06:23:05;;;;;;;26.13;2.20;;;;;;;26.08;58.29;99620.91;7315542;19;128921;-37
2022/08/13 06:25:32;;;;;;;14.73;1.52;;;;;;;25.64;53.21;99619.59;7316508;19;129254;-40
2022/08/13 06:28:00;;;;;;;15.57;1.45;;;;;;;25.69;54.21;99618.13;7317260;19;129503;-38
2022/08/13 06:30:30;;;;;;;20.10;2.03;;;;;;;25.88;57.54;99613.50;7314731;19;129135;-37
2022/08/13 06:33:03;;;;;;;26.25;2.28;;;;;;;25.96;59.30;99619.59;7314347;19;128874;-38
2022/08/13 06:35:31;;;;;;;38.90;3.22;;;;;;;26.02;57.67;99624.22;7316601;19;130135;-41
2022/08/13 06:37:57;;;;;;;14.88;1.42;;;;;;;26.06;57.75;99620.25;7317571;19;130240;-40
2022/08/13 06:40:23;;;;;;;18.20;1.93;;;;;;;26.06;58.08;99619.44;7317217;19;128959;-39
2022/08/13 06:42:51;;;;;;;0.73;0.30;;;;;;;26.07;58.33;99621.06;7315262;19;129398;-38
2022/08/13 06:45:19;;;;;;;30.48;2.50;;;;;;;26.07;58.56;99627.16;7314814;19;129418;-38
2022/08/13 06:47:46;;;;;;;18.52;1.67;;;;;;;26.08;57.99;99623.53;7316551;19;130481;-41
2022/08/13 06:50:11;;;;;;;27.08;2.67;;;;;;;26.09;57.47;99614.66;7315564;19;129036;-39
2022/08/13 06:52:38;;;;;;;14.67;1.40;;;;;;;26.10;58.66;99618.13;7314408;19;128789;-39
2022/08/13 06:55:06;;;;;;;34.88;2.85;;;;;;;26.13;58.28;99625.69;7315464;19;129196;-40
2022/08/13 06:57:33;;;;;;;19.17;1.67;;;;;;;26.11;58.20;99628.50;7316978;19;129521;-38
2022/08/13 06:59:59;;;;;;;18.25;1.90;;;;;;;26.10;58.17;99620.75;7315874;19;129425;-40
2022/08/13 07:02:25;;;;;;;7.67;0.90;;;;;;;26.12;58.40;99618.75;7314741;19;129166;-40
2022/08/13 07:04:54;;;;;;;26.10;2.20;;;;;;;26.11;58.04;99617.94;7314602;19;129184;-39
2022/08/13 07:07:19;;;;;;;18.25;1.67;;;;;;;26.10;58.69;99618.91;7315978;19;129702;-39
2022/08/13 07:09:46;;;;;;;20.17;1.80;;;;;;;26.10;58.76;99615.47;7316068;19;129746;-41
2022/08/13 07:12:12;;;;;;;5.53;0.68;;;;;;;26.08;57.70;99618.25;7314755;19;128998;-39
2022/08/13 07:14:41;;;;;;;43.43;3.43;;;;;;;25.62;53.65;99621.56;7314802;19;129727;-41
2022/08/13 07:17:07;;;;;;;16.75;1.58;;;;;;;25.68;55.25;99627.00;7315272;19;129345;-38
2022/08/13 07:19:34;;;;;;;15.20;1.50;;;;;;;25.88;57.45;99627.50;7315556;19;129547;-38
2022/08/13 07:21:59;;;;;;;15.35;1.45;;;;;;;25.96;57.68;99638.03;7314367;19;129063;-37
2022/08/13 07:24:26;;;;;;;37.70;2.97;;;;;;;26.02;57.07;99634.75;7312641;19;130765;-38
2022/08/13 07:26:59;;;;;;;17.92;1.55;;;;;;;26.06;57.46;99638.72;7313131;19;129143;-42
2022/08/13 07:29:26;;;;;;;11.15;1.30;;;;;;;26.07;58.41;99636.88;7316147;19;128763;-38
2022/08/13 07:31:54;;;;;;;14.40;1.38;;;;;;;26.06;57.83;99630.81;7314397;19;129460;-38
2022/08/13 07:34:21;;;;;;;23.00;2.00;;;;;;;26.09;57.95;99633.09;7313203;19;129675;-37
2022/08/13 07:36:49;;;;;;;18.10;1.60;;;;;;;26.10;58.21;99626.03;7315129;19;129712;-39
2022/08/13 07:39:16;;;;;;;18.23;1.67;;;;;;;26.10;58.56;99632.09;7315144;19;128799;-39
2022/08/13 07:41:45;;;;;;;10.55;1.52;;;;;;;26.09;58.35;99630.47;7312011;19;129203;-39
2022/08/13 07:44:15;;;;;;;21.52;1.77;;;;;;;26.09;58.74;99625.19;7310490;19;130894;-39
2022/08/13 07:46:42;;;;;;;25.23;2.10;;;;;;;26.10;58.16;99626.81;7312658;19;130989;-39
2022/08/13 07:49:10;;;;;;;15.40;1.40;;;;;;;26.11;58.14;99627.66;7315531;19;128892;-38
2022/08/13 07:51:36;;;;;;;30.77;3.15;;;;;;;26.10;58.34;99626.81;7314156;19;129500;-38
2022/08/13 07:54:02;;;;;;;16.77;1.53;;;;;;;26.09;57.71;99629.63;7312577;19;129019;-38
2022/08/13 07:56:29;;;;;;;41.13;3.45;;;;;;;26.09;57.84;99627.81;7314094;19;129363;-39
2022/08/13 07:59:07;;;;;;;15.80;1.52;;;;;;;26.00;59.98;99615.59;7315309;19;128751;-40
2022/08/13 08:01:43;;;;;;;28.13;2.83;;;;;;;25.70;53.65;99634.75;7313791;19;129549;-39
2022/08/13 08:04:12;;;;;;;15.40;1.45;;;;;;;25.61;53.68;99620.78;7311583;19;131719;-39
2022/08/13 08:06:42;;;;;;;16.77;1.67;;;;;;;25.84;57.09;99630.63;7310753;19;129560;-38
2022/08/13 08:09:08;;;;;;;27.92;2.33;;;;;;;25.94;57.57;99637.38;7313787;19;129473;-39
2022/08/13 08:14:19;;;;;;;18.50;1.70;;;;;;;26.04;57.35;99622.25;7312617;19;129321;-39
2022/08/13 08:16:45;;;;;;;14.40;1.27;;;;;;;26.06;57.68;99629.97;7313821;19;129176;-39
2022/08/13 08:19:14;;;;;;;16.48;1.60;;;;;;;26.07;59.11;99626.34;7313981;19;129094;-40
2022/08/13 08:21:41;;;;;;;51.75;4.55;;;;;;;26.01;56.67;99612.03;7313168;19;129323;-39
2022/08/13 08:24:07;;;;;;;17.58;1.60;;;;;;;26.08;58.35;99631.44;7312715;19;130200;-38
2022/08/13 08:26:34;;;;;;;17.07;1.63;;;;;;;26.08;58.23;99628.78;7310322;19;130077;-39
2022/08/13 08:29:04;;;;;;;14.93;1.45;;;;;;;26.08;58.37;99623.53;7313487;19;129358;-40
2022/08/13 08:31:32;;;;;;;53.70;4.80;;;;;;;26.08;57.99;99628.78;7311792;19;129451;-39
2022/08/13 08:34:00;;;;;;;27.23;2.55;;;;;;;26.07;58.77;99621.06;7310716;19;130300;-39
2022/08/13 08:36:27;;;;;;;23.02;2.10;;;;;;;26.08;57.89;99628.78;7313456;19;129229;-38
2022/08/13 08:44:32;;;;;;;20.58;1.95;;;;;;;26.08;58.37;99631.44;7310024;19;129296;-38
2022/08/13 08:46:58;;;;;;;20.30;1.80;;;;;;;26.08;57.48;99623.53;7309747;19;129766;-37
2022/08/13 08:49:25;;;;;;;33.05;2.72;;;;;;;25.93;55.25;99624.38;7312616;19;129313;-39
2022/08/13 08:51:53;;;;;;;15.25;1.52;;;;;;;25.55;53.45;99615.34;7312184;19;128786;-40
2022/08/13 08:54:20;;;;;;;11.70;1.20;;;;;;;25.74;56.06;99638.69;7308696;19;129285;-38
2022/08/13 08:56:54;;;;;;;34.80;3.33;;;;;;;25.90;58.55;99635.25;7311856;19;129473;-37
2022/08/13 08:59:24;;;;;;;37.22;3.03;;;;;;;25.97;57.33;99638.84;7313215;19;129528;-37
2022/08/13 09:01:55;;;;;;;25.67;2.38;;;;;;;26.01;58.52;99638.38;7311682;19;129033;-39
2022/08/13 09:04:25;;;;;;;16.13;1.50;;;;;;;26.04;57.78;99638.03;7309947;19;130263;-40
2022/08/13 09:06:52;;;;;;;22.23;2.17;;;;;;;26.05;57.91;99633.59;7309399;19;129743;-38
2022/08/13 09:09:21;;;;;;;27.98;2.53;;;;;;;26.06;58.45;99635.25;7309674;19;129581;-40
2022/08/13 09:11:49;;;;;;;18.63;1.87;;;;;;;26.07;57.90;99634.25;7312310;19;129023;-38
2022/08/13 09:14:15;;;;;;;16.77;1.55;;;;;;;26.07;57.42;99631.59;7311390;19;130548;-40
2022/08/13 09:16:40;;;;;;;15.23;1.50;;;;;;;26.00;57.74;99615.59;7311330;19;129636;-38
2022/08/13 09:19:08;;;;;;;19.30;1.70;;;;;;;26.07;58.00;99632.44;7311455;19;128865;-37
2022/08/13 09:21:45;;;;;;;46.67;4.38;;;;;;;26.08;59.99;99633.28;7310764;19;129109;-39
2022/08/13 09:24:15;;;;;;;;;;;;;;;26.13;59.61;99629.13;7311067;19;129171;-39
2022/08/13 09:26:55;;;;;;;13.93;1.35;;;;;;;26.09;58.86;99632.25;7310874;19;130121;-38
2022/08/13 09:29:23;;;;;;;8.40;0.95;;;;;;;26.06;58.45;99625.53;7311540;19;128733;-38
2022/08/13 09:31:58;;;;;;;5.78;0.70;;;;;;;26.06;58.00;99625.53;7311077;19;129059;-38
2022/08/13 09:34:25;;;;;;;17.80;1.70;;;;;;;26.06;57.85;99625.53;7308693;19;130082;-38
2022/08/13 09:36:55;;;;;;;;;;;;;;;26.15;60.09;99621.88;7311530;19;129460;-41
2022/08/13 09:39:46;;;;;;;17.70;1.65;;;;;;;25.62;53.33;99619.78;7312348;19;128813;-38
2022/08/13 09:42:16;;;;;;;17.25;1.55;;;;;;;25.70;56.16;99630.28;7311650;19;129359;-38
2022/08/13 09:44:42;;;;;;;17.73;1.70;;;;;;;25.88;57.13;99627.50;7310552;19;129214;-39
2022/08/13 09:47:12;;;;;;;15.95;1.40;;;;;;;25.86;57.80;99608.41;7308409;19;129682;-39
2022/08/13 09:49:38;;;;;;;37.92;3.13;;;;;;;26.00;56.65;99617.44;7311015;19;128977;-40
2022/08/13 09:52:04;;;;;;;10.07;1.03;;;;;;;26.01;56.83;99612.03;7310866;19;129444;-40
2022/08/13 09:54:29;;;;;;;15.40;1.50;;;;;;;26.03;57.89;99606.59;7309180;19;130298;-37
2022/08/13 09:56:58;;;;;;;13.90;1.40;;;;;;;25.94;57.63;99597.84;7310355;19;129298;-38
2022/08/13 09:59:23;;;;;;;24.30;2.30;;;;;;;25.96;57.29;99598.50;7310155;19;129413;-37
2022/08/13 10:01:50;;;;;;;18.47;1.63;;;;;;;26.05;57.53;99618.59;7310704;19;129533;-40
2022/08/13 10:04:18;;;;;;;16.20;1.45;;;;;;;26.06;57.41;99620.25;7307871;19;129197;-37
2022/08/13 10:06:47;;;;;;;16.52;1.55;;;;;;;26.06;59.16;99612.34;7313746;19;130317;-39
2022/08/13 10:09:13;;;;;;;35.72;2.75;;;;;;;26.07;58.69;99614.00;7317100;19;129298;-38
2022/08/13 10:11:39;;;;;;;39.70;4.10;;;;;;;26.07;58.40;99610.53;7316485;19;129122;-40
2022/08/13 10:14:04;;;;;;;15.50;1.50;;;;;;;26.06;57.86;99604.47;7314801;19;129695;-40
2022/08/13 10:16:29;;;;;;;15.40;1.33;;;;;;;26.03;58.10;99602.13;7316438;19;129518;-39
2022/08/13 10:18:56;;;;;;;34.70;2.93;;;;;;;26.06;58.57;99601.00;7317316;19;128863;-39
2022/08/13 10:21:21;;;;;;;20.40;1.90;;;;;;;26.06;57.27;99598.34;7317349;19;129723;-38
2022/08/13 10:23:47;;;;;;;9.33;1.00;;;;;;;25.98;58.07;99585.97;7314690;19;130036;-40
2022/08/13 10:26:17;;;;;;;15.57;1.50;;;;;;;25.66;53.46;99588.66;7315207;19;129536;-40
2022/08/13 10:28:42;;;;;;;38.92;3.08;;;;;;;25.59;53.92;99595.56;7316166;19;129007;-40
2022/08/13 10:31:09;;;;;;;17.83;1.67;;;;;;;25.82;56.86;99588.66;7317404;19;129229;-38
2022/08/13 10:33:37;;;;;;;16.70;1.55;;;;;;;25.93;58.34;99590.13;7314933;19;130266;-37
2022/08/13 10:36:05;;;;;;;16.40;1.50;;;;;;;25.96;57.91;99581.88;7316323;19;130380;-38
2022/08/13 10:38:32;;;;;;;35.20;2.90;;;;;;;25.99;57.19;99582.38;7316512;19;129048;-40
2022/08/13 10:41:00;;;;;;;16.20;1.65;;;;;;;26.01;57.97;99579.56;7317188;19;129056;-40
2022/08/13 10:43:27;;;;;;;12.15;1.17;;;;;;;26.03;57.46;99575.78;7315062;19;130070;-39
2022/08/13 10:45:58;;;;;;;14.95;1.48;;;;;;;26.04;57.44;99579.25;7316160;19;130323;-37
2022/08/13 10:48:25;;;;;;;25.00;2.38;;;;;;;26.04;57.16;99574.81;7315759;19;129091;-37
2022/08/13 10:50:52;;;;;;;29.08;2.50;;;;;;;26.06;58.06;99575.47;7315613;19;128899;-40
2022/08/13 10:56:03;;;;;;;17.42;1.65;;;;;;;26.08;58.15;99562.91;7316667;19;129325;-38
2022/08/13 10:58:29;;;;;;;21.15;2.08;;;;;;;26.06;58.49;99567.56;7315777;19;128624;-38
2022/08/13 11:00:55;;;;;;;26.93;2.33;;;;;;;26.05;58.14;99562.47;7315596;19;129504;-39
2022/08/13 11:03:20;;;;;;;28.10;2.50;;;;;;;26.05;58.90;99565.91;7314296;19;129358;-40
2022/08/13 11:05:47;;;;;;;4.23;0.57;;;;;;;26.06;58.47;99550.94;7315694;19;129218;-40
2022/08/13 11:08:14;;;;;;;5.53;0.73;;;;;;;26.06;58.23;99541.22;7315717;19;129080;-38
2022/08/13 11:10:40;;;;;;;25.80;2.22;;;;;;;25.97;58.26;99539.56;7315493;19;129224;-38
2022/08/13 11:13:05;;;;;;;24.30;2.13;;;;;;;25.90;55.20;99557.00;7315010;19;129053;-42
2022/08/13 11:15:31;;;;;;;6.00;0.73;;;;;;;25.60;53.97;99550.66;7315668;19;129330;-38
2022/08/13 11:17:59;;;;;;;17.25;1.45;;;;;;;25.75;55.41;99548.16;7315476;19;129037;-38
2022/08/13 11:20:27;;;;;;;26.10;2.22;;;;;;;25.88;57.39;99553.75;7314922;19;129400;-38
2022/08/13 11:22:54;;;;;;;21.30;1.85;;;;;;;25.94;57.79;99547.78;7314187;19;129404;-39
2022/08/13 11:25:20;;;;;;;16.52;1.45;;;;;;;25.99;57.54;99545.47;7315361;19;131084;-38
2022/08/13 11:27:46;;;;;;;16.70;1.60;;;;;;;26.02;58.60;99552.25;7312556;19;129308;-38
2022/08/13 11:30:13;;;;;;;28.03;2.37;;;;;;;26.01;57.37;99543.53;7314783;19;129454;-38
2022/08/13 11:32:39;;;;;;;27.80;2.35;;;;;;;26.02;58.12;99549.59;7314005;19;129181;-39
2022/08/13 11:35:05;;;;;;;17.30;1.80;;;;;;;26.03;58.06;99540.72;7314202;19;129301;-39
2022/08/13 11:37:31;;;;;;;15.43;1.60;;;;;;;26.03;57.16;99549.44;7315002;19;128810;-39
2022/08/13 11:39:56;;;;;;;38.75;3.17;;;;;;;26.04;57.81;99545.00;7313761;19;128782;-39
2022/08/13 11:42:22;;;;;;;25.07;2.23;;;;;;;26.04;57.39;99548.47;7314100;19;129445;-37
2022/08/13 11:44:47;;;;;;;14.93;1.40;;;;;;;26.04;58.12;99545.81;7314926;19;129999;-38
2022/08/13 11:47:12;;;;;;;15.63;1.43;;;;;;;26.05;58.75;99547.47;7312749;19;128891;-40